sensor_id;sensor_type;location;lat;lon;timestamp;temperature;humidity
2867;DHT22;1441;48.886;8.728;2023-08-31T00:01:47;13.70;99.90
2867;DHT22;1441;48.886;8.728;2023-08-31T00:04:14;13.70;99.90
2867;DHT22;1441;48.886;8.728;2023-08-31T00:06:43;13.60;99.90
2867;DHT22;1441;48.886;8.728;2023-08-31T00:09:12;13.60;99.90
2867;DHT22;1441;48.886;8.728;2023-08-31T00:11:38;13.70;99.90
2867;DHT22;1441;48.886;8.728;2023-08-31T00:14:04;13.60;99.90
2867;DHT22;1441;48.886;8.728;2023-08-31T00:16:30;13.60;99.90
2867;DHT22;1441;48.886;8.728;2023-08-31T00:18:59;13.60;99.90
2867;DHT22;1441;48.886;8.728;2023-08-31T00:21:24;13.60;99.90
2867;DHT22;1441;48.886;8.728;2023-08-31T00:23:50;13.60;99.90
2867;DHT22;1441;48.886;8.728;2023-08-31T00:26:16;13.60;99.90
2867;DHT22;1441;48.886;8.728;2023-08-31T00:28:41;13.60;99.90
2867;DHT22;1441;48.886;8.728;2023-08-31T00:31:10;13.60;99.90
2867;DHT22;1441;48.886;8.728;2023-08-31T00:33:38;13.60;99.90
2867;DHT22;1441;48.886;8.728;2023-08-31T00:36:04;13.60;99.90
2867;DHT22;1441;48.886;8.728;2023-08-31T00:38:30;13.60;99.90
2867;DHT22;1441;48.886;8.728;2023-08-31T00:40:56;13.60;99.90
2867;DHT22;1441;48.886;8.728;2023-08-31T00:43:22;13.70;99.90
2867;DHT22;1441;48.886;8.728;2023-08-31T00:45:52;13.70;99.90
2867;DHT22;1441;48.886;8.728;2023-08-31T00:48:22;13.70;99.90
2867;DHT22;1441;48.886;8.728;2023-08-31T00:50:48;13.60;99.90
2867;DHT22;1441;48.886;8.728;2023-08-31T00:53:15;13.60;99.90
2867;DHT22;1441;48.886;8.728;2023-08-31T00:55:42;13.60;99.90
2867;DHT22;1441;48.886;8.728;2023-08-31T00:58:08;13.60;99.90
2867;DHT22;1441;48.886;8.728;2023-08-31T01:11:58;13.50;99.90
2867;DHT22;1441;48.886;8.728;2023-08-31T01:14:29;13.40;99.90
2867;DHT22;1441;48.886;8.728;2023-08-31T01:16:58;13.40;99.90
2867;DHT22;1441;48.886;8.728;2023-08-31T01:22:16;13.40;99.90
2867;DHT22;1441;48.886;8.728;2023-08-31T01:24:43;13.40;99.90
2867;DHT22;1441;48.886;8.728;2023-08-31T01:27:10;13.40;99.90
2867;DHT22;1441;48.886;8.728;2023-08-31T01:29:35;13.50;99.90
2867;DHT22;1441;48.886;8.728;2023-08-31T01:32:05;13.50;99.90
2867;DHT22;1441;48.886;8.728;2023-08-31T01:34:31;13.50;99.90
2867;DHT22;1441;48.886;8.728;2023-08-31T01:36:59;13.60;99.90
2867;DHT22;1441;48.886;8.728;2023-08-31T01:39:35;13.60;99.90
2867;DHT22;1441;48.886;8.728;2023-08-31T01:42:05;13.60;99.90
2867;DHT22;1441;48.886;8.728;2023-08-31T01:44:34;13.60;99.90
2867;DHT22;1441;48.886;8.728;2023-08-31T01:47:04;13.60;99.90
2867;DHT22;1441;48.886;8.728;2023-08-31T01:49:40;13.60;99.90
2867;DHT22;1441;48.886;8.728;2023-08-31T01:52:06;13.70;99.90
2867;DHT22;1441;48.886;8.728;2023-08-31T01:54:32;13.70;99.90
2867;DHT22;1441;48.886;8.728;2023-08-31T01:56:58;13.70;99.90
2867;DHT22;1441;48.886;8.728;2023-08-31T01:59:24;13.70;99.90
2867;DHT22;1441;48.886;8.728;2023-08-31T02:01:50;13.70;99.90
2867;DHT22;1441;48.886;8.728;2023-08-31T02:04:15;13.70;99.90
2867;DHT22;1441;48.886;8.728;2023-08-31T02:06:41;13.70;99.90
2867;DHT22;1441;48.886;8.728;2023-08-31T02:09:06;13.70;99.90
2867;DHT22;1441;48.886;8.728;2023-08-31T02:11:32;13.70;99.90
2867;DHT22;1441;48.886;8.728;2023-08-31T02:14:01;13.70;99.90
2867;DHT22;1441;48.886;8.728;2023-08-31T02:16:26;13.70;99.90
2867;DHT22;1441;48.886;8.728;2023-08-31T02:18:52;13.70;99.90
2867;DHT22;1441;48.886;8.728;2023-08-31T02:21:17;13.70;99.90
2867;DHT22;1441;48.886;8.728;2023-08-31T02:23:43;13.70;99.90
2867;DHT22;1441;48.886;8.728;2023-08-31T02:26:11;13.70;99.90
2867;DHT22;1441;48.886;8.728;2023-08-31T02:28:37;13.80;99.90
2867;DHT22;1441;48.886;8.728;2023-08-31T02:31:03;13.70;99.90
2867;DHT22;1441;48.886;8.728;2023-08-31T02:33:28;13.70;99.90
2867;DHT22;1441;48.886;8.728;2023-08-31T02:35:54;13.70;99.90
2867;DHT22;1441;48.886;8.728;2023-08-31T02:38:20;13.70;99.90
2867;DHT22;1441;48.886;8.728;2023-08-31T02:40:49;13.70;99.90
2867;DHT22;1441;48.886;8.728;2023-08-31T02:43:15;13.70;99.90
2867;DHT22;1441;48.886;8.728;2023-08-31T02:45:40;13.70;99.90
2867;DHT22;1441;48.886;8.728;2023-08-31T02:48:07;13.70;99.90
2867;DHT22;1441;48.886;8.728;2023-08-31T02:50:34;13.70;99.90
2867;DHT22;1441;48.886;8.728;2023-08-31T02:53:00;13.70;99.90
2867;DHT22;1441;48.886;8.728;2023-08-31T02:55:25;13.70;99.90
2867;DHT22;1441;48.886;8.728;2023-08-31T02:57:51;13.70;99.90
2867;DHT22;1441;48.886;8.728;2023-08-31T03:00:17;13.70;99.90
2867;DHT22;1441;48.886;8.728;2023-08-31T03:02:47;13.70;99.90
2867;DHT22;1441;48.886;8.728;2023-08-31T03:05:12;13.70;99.90
2867;DHT22;1441;48.886;8.728;2023-08-31T03:07:38;13.70;99.90
2867;DHT22;1441;48.886;8.728;2023-08-31T03:10:04;13.70;99.90
2867;DHT22;1441;48.886;8.728;2023-08-31T03:12:30;13.70;99.90
2867;DHT22;1441;48.886;8.728;2023-08-31T03:14:55;13.70;99.90
2867;DHT22;1441;48.886;8.728;2023-08-31T03:17:21;13.60;99.90
2867;DHT22;1441;48.886;8.728;2023-08-31T03:19:46;13.60;99.90
2867;DHT22;1441;48.886;8.728;2023-08-31T03:22:12;13.60;99.90
2867;DHT22;1441;48.886;8.728;2023-08-31T03:24:37;13.60;99.90
2867;DHT22;1441;48.886;8.728;2023-08-31T03:27:03;13.60;99.90
2867;DHT22;1441;48.886;8.728;2023-08-31T03:29:29;13.60;99.90
2867;DHT22;1441;48.886;8.728;2023-08-31T03:31:54;13.50;99.90
2867;DHT22;1441;48.886;8.728;2023-08-31T03:34:20;13.60;99.90
2867;DHT22;1441;48.886;8.728;2023-08-31T03:36:46;13.60;99.90
2867;DHT22;1441;48.886;8.728;2023-08-31T03:39:11;13.60;99.90
2867;DHT22;1441;48.886;8.728;2023-08-31T03:41:37;13.60;99.90
2867;DHT22;1441;48.886;8.728;2023-08-31T03:44:02;13.60;99.90
2867;DHT22;1441;48.886;8.728;2023-08-31T03:46:28;13.70;99.90
2867;DHT22;1441;48.886;8.728;2023-08-31T03:48:53;13.70;99.90
2867;DHT22;1441;48.886;8.728;2023-08-31T03:51:19;13.70;99.90
2867;DHT22;1441;48.886;8.728;2023-08-31T03:53:44;13.70;99.90
2867;DHT22;1441;48.886;8.728;2023-08-31T03:56:10;13.70;99.90
2867;DHT22;1441;48.886;8.728;2023-08-31T03:58:37;13.70;99.90
2867;DHT22;1441;48.886;8.728;2023-08-31T04:01:02;13.70;99.90
2867;DHT22;1441;48.886;8.728;2023-08-31T04:03:28;13.70;99.90
2867;DHT22;1441;48.886;8.728;2023-08-31T04:05:57;13.70;99.90
2867;DHT22;1441;48.886;8.728;2023-08-31T04:08:22;13.70;99.90
2867;DHT22;1441;48.886;8.728;2023-08-31T04:10:48;13.70;99.90
2867;DHT22;1441;48.886;8.728;2023-08-31T04:13:13;13.70;99.90
2867;DHT22;1441;48.886;8.728;2023-08-31T04:15:39;13.70;99.90
2867;DHT22;1441;48.886;8.728;2023-08-31T04:18:04;13.60;99.90
2867;DHT22;1441;48.886;8.728;2023-08-31T04:20:32;13.60;99.90
2867;DHT22;1441;48.886;8.728;2023-08-31T04:22:57;13.60;99.90
2867;DHT22;1441;48.886;8.728;2023-08-31T04:25:23;13.60;99.90
2867;DHT22;1441;48.886;8.728;2023-08-31T04:27:49;13.60;99.90
2867;DHT22;1441;48.886;8.728;2023-08-31T04:30:14;13.60;99.90
2867;DHT22;1441;48.886;8.728;2023-08-31T04:32:41;13.60;99.90
2867;DHT22;1441;48.886;8.728;2023-08-31T04:35:06;13.50;99.90
2867;DHT22;1441;48.886;8.728;2023-08-31T04:37:33;13.60;99.90
2867;DHT22;1441;48.886;8.728;2023-08-31T04:39:58;13.50;99.90
2867;DHT22;1441;48.886;8.728;2023-08-31T04:42:24;13.50;99.90
2867;DHT22;1441;48.886;8.728;2023-08-31T04:44:50;13.50;99.90
2867;DHT22;1441;48.886;8.728;2023-08-31T04:47:15;13.50;99.90
2867;DHT22;1441;48.886;8.728;2023-08-31T04:49:41;13.50;99.90
2867;DHT22;1441;48.886;8.728;2023-08-31T04:52:08;13.40;99.90
2867;DHT22;1441;48.886;8.728;2023-08-31T04:54:33;13.40;99.90
2867;DHT22;1441;48.886;8.728;2023-08-31T04:56:59;13.40;99.90
2867;DHT22;1441;48.886;8.728;2023-08-31T04:59:24;13.30;99.90
2867;DHT22;1441;48.886;8.728;2023-08-31T05:01:50;13.30;99.90
2867;DHT22;1441;48.886;8.728;2023-08-31T05:04:15;13.30;99.90
2867;DHT22;1441;48.886;8.728;2023-08-31T05:06:41;13.20;99.90
2867;DHT22;1441;48.886;8.728;2023-08-31T05:09:07;13.30;99.90
2867;DHT22;1441;48.886;8.728;2023-08-31T05:11:33;13.20;99.90
2867;DHT22;1441;48.886;8.728;2023-08-31T05:13:59;13.20;99.90
2867;DHT22;1441;48.886;8.728;2023-08-31T05:16:24;13.20;99.90
2867;DHT22;1441;48.886;8.728;2023-08-31T05:18:50;13.20;99.90
2867;DHT22;1441;48.886;8.728;2023-08-31T05:21:15;13.30;99.90
2867;DHT22;1441;48.886;8.728;2023-08-31T05:23:41;13.30;99.90
2867;DHT22;1441;48.886;8.728;2023-08-31T05:26:07;13.30;99.90
2867;DHT22;1441;48.886;8.728;2023-08-31T05:28:32;13.30;99.90
2867;DHT22;1441;48.886;8.728;2023-08-31T05:31:00;13.30;99.90
2867;DHT22;1441;48.886;8.728;2023-08-31T05:33:26;13.40;99.90
2867;DHT22;1441;48.886;8.728;2023-08-31T05:35:53;13.60;99.90
2867;DHT22;1441;48.886;8.728;2023-08-31T05:38:18;13.70;99.90
2867;DHT22;1441;48.886;8.728;2023-08-31T05:40:44;13.80;99.90
2867;DHT22;1441;48.886;8.728;2023-08-31T05:43:12;13.90;99.90
2867;DHT22;1441;48.886;8.728;2023-08-31T05:45:38;13.90;99.90
2867;DHT22;1441;48.886;8.728;2023-08-31T05:48:03;13.90;99.90
2867;DHT22;1441;48.886;8.728;2023-08-31T05:50:30;14.00;99.90
2867;DHT22;1441;48.886;8.728;2023-08-31T05:52:56;14.00;99.90
2867;DHT22;1441;48.886;8.728;2023-08-31T05:55:21;14.10;99.90
2867;DHT22;1441;48.886;8.728;2023-08-31T05:57:47;14.10;99.90
2867;DHT22;1441;48.886;8.728;2023-08-31T06:00:13;14.10;99.90
2867;DHT22;1441;48.886;8.728;2023-08-31T06:02:39;14.10;99.90
2867;DHT22;1441;48.886;8.728;2023-08-31T06:05:04;14.10;99.90
2867;DHT22;1441;48.886;8.728;2023-08-31T06:07:31;14.10;99.90
2867;DHT22;1441;48.886;8.728;2023-08-31T06:09:56;14.10;99.90
2867;DHT22;1441;48.886;8.728;2023-08-31T06:12:22;14.20;99.90
2867;DHT22;1441;48.886;8.728;2023-08-31T06:14:48;14.20;99.90
2867;DHT22;1441;48.886;8.728;2023-08-31T06:17:13;14.30;99.90
2867;DHT22;1441;48.886;8.728;2023-08-31T06:19:41;14.40;99.90
2867;DHT22;1441;48.886;8.728;2023-08-31T06:22:07;14.50;99.90
2867;DHT22;1441;48.886;8.728;2023-08-31T06:24:32;14.60;99.90
2867;DHT22;1441;48.886;8.728;2023-08-31T06:26:59;14.60;99.90
2867;DHT22;1441;48.886;8.728;2023-08-31T06:29:25;15.30;99.90
2867;DHT22;1441;48.886;8.728;2023-08-31T06:31:50;16.20;98.60
2867;DHT22;1441;48.886;8.728;2023-08-31T06:34:16;17.40;93.20
2867;DHT22;1441;48.886;8.728;2023-08-31T06:36:42;17.30;92.60
2867;DHT22;1441;48.886;8.728;2023-08-31T06:39:07;17.70;92.30
2867;DHT22;1441;48.886;8.728;2023-08-31T06:41:33;19.00;88.20
2867;DHT22;1441;48.886;8.728;2023-08-31T06:43:59;20.10;84.30
2867;DHT22;1441;48.886;8.728;2023-08-31T06:46:24;19.70;84.20
2867;DHT22;1441;48.886;8.728;2023-08-31T06:48:50;19.10;85.70
2867;DHT22;1441;48.886;8.728;2023-08-31T06:51:15;19.80;84.70
2867;DHT22;1441;48.886;8.728;2023-08-31T06:53:44;19.30;85.20
2867;DHT22;1441;48.886;8.728;2023-08-31T06:56:10;19.90;85.00
2867;DHT22;1441;48.886;8.728;2023-08-31T06:58:35;21.60;80.20
2867;DHT22;1441;48.886;8.728;2023-08-31T07:01:05;22.90;76.70
2867;DHT22;1441;48.886;8.728;2023-08-31T07:03:30;24.30;73.00
2867;DHT22;1441;48.886;8.728;2023-08-31T07:05:56;24.80;71.20
2867;DHT22;1441;48.886;8.728;2023-08-31T07:08:22;25.60;69.10
2867;DHT22;1441;48.886;8.728;2023-08-31T07:10:49;25.60;68.40
2867;DHT22;1441;48.886;8.728;2023-08-31T07:13:15;25.70;68.30
2867;DHT22;1441;48.886;8.728;2023-08-31T07:15:41;25.40;69.00
2867;DHT22;1441;48.886;8.728;2023-08-31T07:18:07;24.50;70.80
2867;DHT22;1441;48.886;8.728;2023-08-31T07:20:33;23.30;73.30
2867;DHT22;1441;48.886;8.728;2023-08-31T07:22:58;22.70;76.40
2867;DHT22;1441;48.886;8.728;2023-08-31T07:25:25;22.40;76.40
2867;DHT22;1441;48.886;8.728;2023-08-31T07:27:50;22.60;75.50
2867;DHT22;1441;48.886;8.728;2023-08-31T07:30:16;22.00;77.70
2867;DHT22;1441;48.886;8.728;2023-08-31T07:32:42;21.70;78.80
2867;DHT22;1441;48.886;8.728;2023-08-31T07:35:07;21.40;80.10
2867;DHT22;1441;48.886;8.728;2023-08-31T07:37:33;20.60;81.50
2867;DHT22;1441;48.886;8.728;2023-08-31T07:39:59;19.80;83.10
2867;DHT22;1441;48.886;8.728;2023-08-31T07:42:25;19.50;83.80
2867;DHT22;1441;48.886;8.728;2023-08-31T07:44:50;19.90;83.70
2867;DHT22;1441;48.886;8.728;2023-08-31T07:47:16;20.30;82.50
2867;DHT22;1441;48.886;8.728;2023-08-31T07:49:41;20.60;81.50
2867;DHT22;1441;48.886;8.728;2023-08-31T07:52:07;20.70;81.10
2867;DHT22;1441;48.886;8.728;2023-08-31T07:54:33;21.10;80.60
2867;DHT22;1441;48.886;8.728;2023-08-31T07:56:59;21.70;79.30
2867;DHT22;1441;48.886;8.728;2023-08-31T07:59:25;21.80;77.60
2867;DHT22;1441;48.886;8.728;2023-08-31T08:01:51;22.50;76.10
2867;DHT22;1441;48.886;8.728;2023-08-31T08:04:16;22.50;75.70
2867;DHT22;1441;48.886;8.728;2023-08-31T08:06:44;22.80;74.60
2867;DHT22;1441;48.886;8.728;2023-08-31T08:09:10;22.40;75.40
2867;DHT22;1441;48.886;8.728;2023-08-31T08:11:37;21.90;76.90
2867;DHT22;1441;48.886;8.728;2023-08-31T08:14:03;21.80;76.60
2867;DHT22;1441;48.886;8.728;2023-08-31T08:16:28;21.30;77.80
2867;DHT22;1441;48.886;8.728;2023-08-31T08:18:54;21.70;77.40
2867;DHT22;1441;48.886;8.728;2023-08-31T08:21:20;22.10;76.90
2867;DHT22;1441;48.886;8.728;2023-08-31T08:23:45;22.10;76.60
2867;DHT22;1441;48.886;8.728;2023-08-31T08:26:11;21.60;77.30
2867;DHT22;1441;48.886;8.728;2023-08-31T08:28:36;22.00;77.20
2867;DHT22;1441;48.886;8.728;2023-08-31T08:31:02;22.50;76.00
2867;DHT22;1441;48.886;8.728;2023-08-31T08:33:29;23.30;73.50
2867;DHT22;1441;48.886;8.728;2023-08-31T08:35:58;24.10;70.70
2867;DHT22;1441;48.886;8.728;2023-08-31T08:38:23;25.00;68.70
2867;DHT22;1441;48.886;8.728;2023-08-31T08:40:49;24.60;70.60
2867;DHT22;1441;48.886;8.728;2023-08-31T08:43:15;25.70;65.90
2867;DHT22;1441;48.886;8.728;2023-08-31T08:45:44;25.10;67.00
2867;DHT22;1441;48.886;8.728;2023-08-31T08:48:12;24.30;69.50
2867;DHT22;1441;48.886;8.728;2023-08-31T08:50:40;23.80;70.10
2867;DHT22;1441;48.886;8.728;2023-08-31T08:53:06;23.90;69.40
2867;DHT22;1441;48.886;8.728;2023-08-31T08:55:32;25.10;67.20
2867;DHT22;1441;48.886;8.728;2023-08-31T08:57:59;26.00;64.80
2867;DHT22;1441;48.886;8.728;2023-08-31T09:00:26;26.30;63.30
2867;DHT22;1441;48.886;8.728;2023-08-31T09:02:52;26.10;63.50
2867;DHT22;1441;48.886;8.728;2023-08-31T09:05:18;25.30;62.40
2867;DHT22;1441;48.886;8.728;2023-08-31T09:08:04;25.20;63.70
2867;DHT22;1441;48.886;8.728;2023-08-31T09:10:37;25.60;63.40
2867;DHT22;1441;48.886;8.728;2023-08-31T09:13:10;25.90;63.00
2867;DHT22;1441;48.886;8.728;2023-08-31T09:15:47;25.70;63.40
2867;DHT22;1441;48.886;8.728;2023-08-31T09:18:31;26.30;60.90
2867;DHT22;1441;48.886;8.728;2023-08-31T09:20:58;26.60;61.20
2867;DHT22;1441;48.886;8.728;2023-08-31T09:23:24;25.60;61.70
2867;DHT22;1441;48.886;8.728;2023-08-31T09:25:54;25.30;63.30
2867;DHT22;1441;48.886;8.728;2023-08-31T09:28:24;25.20;62.40
2867;DHT22;1441;48.886;8.728;2023-08-31T09:30:52;26.10;61.50
2867;DHT22;1441;48.886;8.728;2023-08-31T09:33:19;26.00;61.20
2867;DHT22;1441;48.886;8.728;2023-08-31T09:35:50;25.80;62.20
2867;DHT22;1441;48.886;8.728;2023-08-31T09:38:19;25.00;64.00
2867;DHT22;1441;48.886;8.728;2023-08-31T09:40:44;24.00;65.10
2867;DHT22;1441;48.886;8.728;2023-08-31T09:43:10;24.30;65.00
2867;DHT22;1441;48.886;8.728;2023-08-31T09:45:36;24.10;64.60
2867;DHT22;1441;48.886;8.728;2023-08-31T09:48:03;23.70;65.10
2867;DHT22;1441;48.886;8.728;2023-08-31T09:50:30;23.40;66.60
2867;DHT22;1441;48.886;8.728;2023-08-31T09:53:00;23.40;66.90
2867;DHT22;1441;48.886;8.728;2023-08-31T09:55:28;23.60;66.50
2867;DHT22;1441;48.886;8.728;2023-08-31T09:57:56;23.80;65.80
2867;DHT22;1441;48.886;8.728;2023-08-31T10:00:24;23.70;65.10
2867;DHT22;1441;48.886;8.728;2023-08-31T10:02:56;23.70;65.60
2867;DHT22;1441;48.886;8.728;2023-08-31T10:05:23;23.40;66.20
2867;DHT22;1441;48.886;8.728;2023-08-31T10:07:50;23.60;67.20
2867;DHT22;1441;48.886;8.728;2023-08-31T10:10:16;23.40;67.10
2867;DHT22;1441;48.886;8.728;2023-08-31T10:12:43;22.70;68.00
2867;DHT22;1441;48.886;8.728;2023-08-31T10:15:10;22.50;70.00
2867;DHT22;1441;48.886;8.728;2023-08-31T10:17:36;23.00;70.20
2867;DHT22;1441;48.886;8.728;2023-08-31T10:20:02;22.70;70.40
2867;DHT22;1441;48.886;8.728;2023-08-31T10:22:28;22.30;69.20
2867;DHT22;1441;48.886;8.728;2023-08-31T10:25:03;22.00;69.90
2867;DHT22;1441;48.886;8.728;2023-08-31T10:27:37;21.60;70.30
2867;DHT22;1441;48.886;8.728;2023-08-31T10:33:01;21.60;71.40
2867;DHT22;1441;48.886;8.728;2023-08-31T10:35:48;20.80;70.30
2867;DHT22;1441;48.886;8.728;2023-08-31T10:38:15;20.60;73.20
2867;DHT22;1441;48.886;8.728;2023-08-31T10:40:41;21.40;71.80
2867;DHT22;1441;48.886;8.728;2023-08-31T10:43:16;21.40;71.90
2867;DHT22;1441;48.886;8.728;2023-08-31T10:45:45;21.40;70.40
2867;DHT22;1441;48.886;8.728;2023-08-31T10:48:11;21.50;72.10
2867;DHT22;1441;48.886;8.728;2023-08-31T10:50:44;21.50;71.60
2867;DHT22;1441;48.886;8.728;2023-08-31T10:53:10;21.50;69.80
2867;DHT22;1441;48.886;8.728;2023-08-31T10:55:52;21.00;71.20
2867;DHT22;1441;48.886;8.728;2023-08-31T10:58:18;21.10;73.40
2867;DHT22;1441;48.886;8.728;2023-08-31T11:00:53;21.20;73.50
2867;DHT22;1441;48.886;8.728;2023-08-31T11:03:21;21.20;72.40
2867;DHT22;1441;48.886;8.728;2023-08-31T11:05:53;21.20;72.60
2867;DHT22;1441;48.886;8.728;2023-08-31T11:08:25;21.50;71.50
2867;DHT22;1441;48.886;8.728;2023-08-31T11:10:52;21.70;72.90
2867;DHT22;1441;48.886;8.728;2023-08-31T11:13:23;21.80;71.80
2867;DHT22;1441;48.886;8.728;2023-08-31T11:15:48;21.60;70.50
2867;DHT22;1441;48.886;8.728;2023-08-31T11:18:20;21.40;71.70
2867;DHT22;1441;48.886;8.728;2023-08-31T11:20:47;21.10;72.60
2867;DHT22;1441;48.886;8.728;2023-08-31T11:23:13;21.20;71.90
2867;DHT22;1441;48.886;8.728;2023-08-31T11:25:39;21.60;72.60
2867;DHT22;1441;48.886;8.728;2023-08-31T11:28:06;21.80;73.20
2867;DHT22;1441;48.886;8.728;2023-08-31T11:30:36;21.70;72.10
2867;DHT22;1441;48.886;8.728;2023-08-31T11:33:03;21.70;71.70
2867;DHT22;1441;48.886;8.728;2023-08-31T11:35:36;21.30;72.40
2867;DHT22;1441;48.886;8.728;2023-08-31T11:38:02;21.00;71.50
2867;DHT22;1441;48.886;8.728;2023-08-31T11:40:29;20.70;71.80
2867;DHT22;1441;48.886;8.728;2023-08-31T11:42:55;20.70;71.80
2867;DHT22;1441;48.886;8.728;2023-08-31T11:45:22;20.90;73.00
2867;DHT22;1441;48.886;8.728;2023-08-31T11:47:50;21.10;72.30
2867;DHT22;1441;48.886;8.728;2023-08-31T11:50:16;21.00;73.00
2867;DHT22;1441;48.886;8.728;2023-08-31T11:52:42;20.90;72.40
2867;DHT22;1441;48.886;8.728;2023-08-31T11:55:17;20.90;72.60
2867;DHT22;1441;48.886;8.728;2023-08-31T11:57:50;21.40;72.10
2867;DHT22;1441;48.886;8.728;2023-08-31T12:00:19;21.30;72.20
2867;DHT22;1441;48.886;8.728;2023-08-31T12:02:53;22.00;71.30
2867;DHT22;1441;48.886;8.728;2023-08-31T12:05:19;22.30;72.00
2867;DHT22;1441;48.886;8.728;2023-08-31T12:07:44;22.00;71.60
2867;DHT22;1441;48.886;8.728;2023-08-31T12:10:10;21.80;72.00
2867;DHT22;1441;48.886;8.728;2023-08-31T12:12:36;21.60;71.80
2867;DHT22;1441;48.886;8.728;2023-08-31T12:15:02;21.70;71.00
2867;DHT22;1441;48.886;8.728;2023-08-31T12:17:31;21.40;72.40
2867;DHT22;1441;48.886;8.728;2023-08-31T12:20:03;21.20;73.00
2867;DHT22;1441;48.886;8.728;2023-08-31T12:22:32;21.00;73.60
2867;DHT22;1441;48.886;8.728;2023-08-31T12:24:57;20.70;74.10
2867;DHT22;1441;48.886;8.728;2023-08-31T12:27:23;20.50;75.10
2867;DHT22;1441;48.886;8.728;2023-08-31T12:29:48;20.40;74.80
2867;DHT22;1441;48.886;8.728;2023-08-31T12:32:15;20.40;74.70
2867;DHT22;1441;48.886;8.728;2023-08-31T12:34:42;20.80;74.50
2867;DHT22;1441;48.886;8.728;2023-08-31T12:37:07;21.00;73.50
2867;DHT22;1441;48.886;8.728;2023-08-31T12:39:33;20.90;73.60
2867;DHT22;1441;48.886;8.728;2023-08-31T12:41:59;20.90;74.20
2867;DHT22;1441;48.886;8.728;2023-08-31T12:44:25;20.80;71.60
2867;DHT22;1441;48.886;8.728;2023-08-31T12:46:51;21.10;72.40
2867;DHT22;1441;48.886;8.728;2023-08-31T12:49:17;21.30;73.60
2867;DHT22;1441;48.886;8.728;2023-08-31T12:51:43;21.60;71.80
2867;DHT22;1441;48.886;8.728;2023-08-31T12:54:09;21.60;72.60
2867;DHT22;1441;48.886;8.728;2023-08-31T12:56:34;21.60;72.30
2867;DHT22;1441;48.886;8.728;2023-08-31T12:59:00;21.50;72.40
2867;DHT22;1441;48.886;8.728;2023-08-31T13:01:25;21.50;72.10
2867;DHT22;1441;48.886;8.728;2023-08-31T13:03:51;21.20;72.10
2867;DHT22;1441;48.886;8.728;2023-08-31T13:06:18;20.80;72.30
2867;DHT22;1441;48.886;8.728;2023-08-31T13:08:44;20.50;73.60
2867;DHT22;1441;48.886;8.728;2023-08-31T13:11:11;20.40;73.80
2867;DHT22;1441;48.886;8.728;2023-08-31T13:13:38;20.30;73.50
2867;DHT22;1441;48.886;8.728;2023-08-31T13:16:04;20.30;73.90
2867;DHT22;1441;48.886;8.728;2023-08-31T13:18:29;20.40;73.80
2867;DHT22;1441;48.886;8.728;2023-08-31T13:20:55;20.20;73.80
2867;DHT22;1441;48.886;8.728;2023-08-31T13:23:21;20.20;74.00
2867;DHT22;1441;48.886;8.728;2023-08-31T13:25:48;20.20;75.50
2867;DHT22;1441;48.886;8.728;2023-08-31T13:28:14;20.10;75.20
2867;DHT22;1441;48.886;8.728;2023-08-31T13:30:40;20.00;75.90
2867;DHT22;1441;48.886;8.728;2023-08-31T13:33:06;19.90;75.50
2867;DHT22;1441;48.886;8.728;2023-08-31T13:35:33;19.80;75.60
2867;DHT22;1441;48.886;8.728;2023-08-31T13:37:58;19.90;76.80
2867;DHT22;1441;48.886;8.728;2023-08-31T13:40:24;19.90;78.00
2867;DHT22;1441;48.886;8.728;2023-08-31T13:42:58;19.90;77.90
2867;DHT22;1441;48.886;8.728;2023-08-31T13:45:29;19.80;77.00
2867;DHT22;1441;48.886;8.728;2023-08-31T13:47:54;19.50;77.80
2867;DHT22;1441;48.886;8.728;2023-08-31T13:50:20;19.50;77.80
2867;DHT22;1441;48.886;8.728;2023-08-31T13:52:46;19.50;78.40
2867;DHT22;1441;48.886;8.728;2023-08-31T13:55:12;19.40;77.20
2867;DHT22;1441;48.886;8.728;2023-08-31T13:57:41;19.30;78.60
2867;DHT22;1441;48.886;8.728;2023-08-31T14:00:08;19.30;78.80
2867;DHT22;1441;48.886;8.728;2023-08-31T14:02:37;19.30;78.80
2867;DHT22;1441;48.886;8.728;2023-08-31T14:05:03;19.30;79.60
2867;DHT22;1441;48.886;8.728;2023-08-31T14:07:29;19.40;78.80
2867;DHT22;1441;48.886;8.728;2023-08-31T14:09:55;19.60;78.50
2867;DHT22;1441;48.886;8.728;2023-08-31T14:12:20;19.60;78.70
2867;DHT22;1441;48.886;8.728;2023-08-31T14:14:47;19.60;78.60
2867;DHT22;1441;48.886;8.728;2023-08-31T14:17:12;19.60;77.80
2867;DHT22;1441;48.886;8.728;2023-08-31T14:19:38;19.40;77.60
2867;DHT22;1441;48.886;8.728;2023-08-31T14:22:05;19.20;78.70
2867;DHT22;1441;48.886;8.728;2023-08-31T14:24:31;19.20;79.90
2867;DHT22;1441;48.886;8.728;2023-08-31T14:26:56;19.30;80.00
2867;DHT22;1441;48.886;8.728;2023-08-31T14:29:23;19.30;79.90
2867;DHT22;1441;48.886;8.728;2023-08-31T14:31:48;19.60;78.90
2867;DHT22;1441;48.886;8.728;2023-08-31T14:34:14;19.70;78.80
2867;DHT22;1441;48.886;8.728;2023-08-31T14:36:40;19.80;79.10
2867;DHT22;1441;48.886;8.728;2023-08-31T14:39:05;19.80;78.40
2867;DHT22;1441;48.886;8.728;2023-08-31T14:41:31;19.80;78.30
2867;DHT22;1441;48.886;8.728;2023-08-31T14:43:56;19.90;78.50
2867;DHT22;1441;48.886;8.728;2023-08-31T14:46:22;20.10;77.80
2867;DHT22;1441;48.886;8.728;2023-08-31T14:48:49;20.10;77.60
2867;DHT22;1441;48.886;8.728;2023-08-31T14:51:15;19.90;77.40
2867;DHT22;1441;48.886;8.728;2023-08-31T14:53:41;19.80;78.60
2867;DHT22;1441;48.886;8.728;2023-08-31T14:56:07;19.70;78.70
2867;DHT22;1441;48.886;8.728;2023-08-31T14:58:33;19.60;78.90
2867;DHT22;1441;48.886;8.728;2023-08-31T15:00:59;19.50;79.20
2867;DHT22;1441;48.886;8.728;2023-08-31T15:03:24;19.40;79.10
2867;DHT22;1441;48.886;8.728;2023-08-31T15:05:50;19.50;79.80
2867;DHT22;1441;48.886;8.728;2023-08-31T15:08:16;19.40;80.20
2867;DHT22;1441;48.886;8.728;2023-08-31T15:10:42;19.20;79.60
2867;DHT22;1441;48.886;8.728;2023-08-31T15:13:07;19.10;81.10
2867;DHT22;1441;48.886;8.728;2023-08-31T15:15:35;19.00;80.80
2867;DHT22;1441;48.886;8.728;2023-08-31T15:18:01;19.00;81.50
2867;DHT22;1441;48.886;8.728;2023-08-31T15:20:27;19.00;80.90
2867;DHT22;1441;48.886;8.728;2023-08-31T15:22:53;18.90;80.60
2867;DHT22;1441;48.886;8.728;2023-08-31T15:25:19;18.80;81.00
2867;DHT22;1441;48.886;8.728;2023-08-31T15:27:45;18.70;81.50
2867;DHT22;1441;48.886;8.728;2023-08-31T15:30:11;18.60;81.70
2867;DHT22;1441;48.886;8.728;2023-08-31T15:32:37;18.60;82.30
2867;DHT22;1441;48.886;8.728;2023-08-31T15:35:03;18.60;82.10
2867;DHT22;1441;48.886;8.728;2023-08-31T15:37:29;18.60;82.50
2867;DHT22;1441;48.886;8.728;2023-08-31T15:39:55;18.50;82.40
2867;DHT22;1441;48.886;8.728;2023-08-31T15:42:22;18.50;82.90
2867;DHT22;1441;48.886;8.728;2023-08-31T15:44:50;18.50;82.50
2867;DHT22;1441;48.886;8.728;2023-08-31T15:47:15;18.50;82.60
2867;DHT22;1441;48.886;8.728;2023-08-31T15:49:41;18.70;81.80
2867;DHT22;1441;48.886;8.728;2023-08-31T15:52:07;18.70;83.00
2867;DHT22;1441;48.886;8.728;2023-08-31T15:54:33;18.70;82.90
2867;DHT22;1441;48.886;8.728;2023-08-31T15:56:58;18.90;82.70
2867;DHT22;1441;48.886;8.728;2023-08-31T15:59:24;19.10;82.40
2867;DHT22;1441;48.886;8.728;2023-08-31T16:01:49;19.20;82.60
2867;DHT22;1441;48.886;8.728;2023-08-31T16:04:15;19.20;82.00
2867;DHT22;1441;48.886;8.728;2023-08-31T16:06:41;19.20;82.30
2867;DHT22;1441;48.886;8.728;2023-08-31T16:09:07;19.10;82.10
2867;DHT22;1441;48.886;8.728;2023-08-31T16:11:33;19.10;82.40
2867;DHT22;1441;48.886;8.728;2023-08-31T16:13:59;19.20;82.70
2867;DHT22;1441;48.886;8.728;2023-08-31T16:16:25;19.30;82.80